createdAt,value
2017-04-21T00:00:30.495Z,18.33
2017-04-21T00:01:28.785Z,18.78
2017-04-21T00:02:27.305Z,19.35
2017-04-21T00:03:25.676Z,19.73
2017-04-21T00:04:23.960Z,19.32
2017-04-21T00:05:22.319Z,19.42
2017-04-21T00:06:20.625Z,19.57
2017-04-21T00:07:19.146Z,19.03
2017-04-21T00:08:17.461Z,19.65
2017-04-21T00:09:15.722Z,19.65
2017-04-21T00:10:14.007Z,19.87
2017-04-21T00:11:12.357Z,19.12
2017-04-21T00:12:10.843Z,18.60
2017-04-21T00:13:09.162Z,19.05
2017-04-21T00:14:07.455Z,19.75
2017-04-21T00:15:05.942Z,19.18
2017-04-21T00:16:04.307Z,19.35
2017-04-21T00:17:03.290Z,20.40
2017-04-21T00:18:01.207Z,20.47
2017-04-21T00:18:59.511Z,19.87
2017-04-21T00:19:57.863Z,19.00
2017-04-21T00:20:56.256Z,18.77
2017-04-21T00:21:54.568Z,19.53
2017-04-21T00:22:52.927Z,21.78
2017-04-21T00:23:51.201Z,18.67
2017-04-21T00:24:50.223Z,19.63
2017-04-21T00:25:48.460Z,18.77
2017-04-21T00:26:47.723Z,18.05
2017-04-21T00:27:46.075Z,18.53
2017-04-21T00:28:45.121Z,17.88
2017-04-21T00:29:43.348Z,19.67
2017-04-21T00:30:42.168Z,19.83
2017-04-21T00:31:41.023Z,19.00
2017-04-21T00:32:39.662Z,18.50
2017-04-21T00:33:38.636Z,20.00
2017-04-21T00:34:38.031Z,19.38
2017-04-21T00:35:36.379Z,20.37
2017-04-21T00:36:35.683Z,19.23
2017-04-21T00:37:34.057Z,19.38
2017-04-21T00:38:32.974Z,18.87
2017-04-21T00:39:32.505Z,20.15
2017-04-21T00:40:30.879Z,17.87
2017-04-21T00:41:29.122Z,19.32
2017-04-21T00:42:27.370Z,19.28
2017-04-21T00:43:26.356Z,19.02
2017-04-21T00:44:25.423Z,20.15
2017-04-21T00:45:23.722Z,18.90
2017-04-21T00:46:21.998Z,19.92
2017-04-21T00:47:20.329Z,19.43
2017-04-21T00:48:18.595Z,19.80
2017-04-21T00:49:17.513Z,19.60
2017-04-21T00:50:17.140Z,21.00
2017-04-21T00:51:16.107Z,19.87
2017-04-21T00:52:14.543Z,20.78
2017-04-21T00:53:14.289Z,19.70
2017-04-21T00:54:12.626Z,21.12
2017-04-21T00:55:10.922Z,19.95
2017-04-21T00:56:09.159Z,19.92
2017-04-21T00:57:07.392Z,19.20
2017-04-21T00:58:05.742Z,19.82
2017-04-21T00:59:04.001Z,18.47
2017-04-21T01:00:03.112Z,18.57
2017-04-21T01:01:02.161Z,18.25
2017-04-21T01:02:01.924Z,18.82
2017-04-21T01:03:00.175Z,19.07
2017-04-21T01:03:59.225Z,20.62
2017-04-21T01:04:57.530Z,19.62
2017-04-21T01:05:56.511Z,18.98
2017-04-21T01:06:55.535Z,20.15
2017-04-21T01:07:53.895Z,20.18
2017-04-21T01:08:52.953Z,21.22
2017-04-21T01:09:52.060Z,19.10
2017-04-21T01:10:50.399Z,20.17
2017-04-21T01:11:49.497Z,20.00
2017-04-21T01:12:48.604Z,19.67
2017-04-21T01:13:47.452Z,20.05
2017-04-21T01:14:45.763Z,20.20
2017-04-21T01:15:44.611Z,19.58
2017-04-21T01:16:43.701Z,17.50
2017-04-21T01:17:42.703Z,19.85
2017-04-21T01:18:41.011Z,20.28
2017-04-21T01:19:39.262Z,20.00
2017-04-21T01:20:37.680Z,20.95
2017-04-21T01:21:36.831Z,19.70
2017-04-21T01:22:35.159Z,20.13
2017-04-21T01:23:34.103Z,19.45
2017-04-21T01:24:32.381Z,18.78
2017-04-21T01:25:30.741Z,19.18
2017-04-21T01:26:29.063Z,19.02
2017-04-21T01:27:27.355Z,19.28
2017-04-21T01:28:25.656Z,18.57
2017-04-21T01:29:24.699Z,18.67
2017-04-21T01:30:22.924Z,18.57
2017-04-21T01:31:21.211Z,17.78
2017-04-21T01:32:19.453Z,19.68
2017-04-21T01:33:17.808Z,19.33
2017-04-21T01:34:17.308Z,18.60
2017-04-21T01:35:16.388Z,18.73
2017-04-21T01:36:15.359Z,18.75
2017-04-21T01:37:13.623Z,18.52
2017-04-21T01:38:12.040Z,19.02
2017-04-21T01:39:10.895Z,18.03
2017-04-21T01:40:09.121Z,17.43
2017-04-21T01:41:08.160Z,17.22
2017-04-21T01:42:06.416Z,17.95
2017-04-21T01:43:04.685Z,18.78
2017-04-21T01:44:03.072Z,18.22
2017-04-21T01:45:01.977Z,17.93
2017-04-21T01:46:00.232Z,18.57
2017-04-21T01:46:58.541Z,18.07
2017-04-21T01:47:56.775Z,16.13
2017-04-21T01:48:55.070Z,17.55
2017-04-21T01:49:53.949Z,17.78
2017-04-21T01:50:52.244Z,15.52
2017-04-21T01:51:50.535Z,17.28
2017-04-21T01:52:49.715Z,17.93
2017-04-21T01:53:48.868Z,17.73
2017-04-21T01:54:47.152Z,18.93
2017-04-21T01:55:45.450Z,16.73
2017-04-21T01:56:43.832Z,16.45
2017-04-21T01:57:42.202Z,16.93
2017-04-21T01:58:41.039Z,17.73
2017-04-21T01:59:39.402Z,16.55
2017-04-21T02:00:37.677Z,18.80
2017-04-21T02:01:36.022Z,16.77
2017-04-21T02:02:34.332Z,17.37
2017-04-21T02:03:33.344Z,16.95
2017-04-21T02:04:31.686Z,18.02
2017-04-21T02:05:29.972Z,16.52
2017-04-21T02:06:28.399Z,17.80
2017-04-21T02:07:26.970Z,17.27
2017-04-21T02:08:25.297Z,17.22
2017-04-21T02:09:23.659Z,16.55
2017-04-21T02:10:22.411Z,17.67
2017-04-21T02:11:21.174Z,18.57
2017-04-21T02:12:19.597Z,17.67
2017-04-21T02:13:18.106Z,17.52
2017-04-21T02:14:16.428Z,18.15
2017-04-21T02:15:14.759Z,17.78
2017-04-21T02:16:13.050Z,18.13
2017-04-21T02:17:11.353Z,18.45
2017-04-21T02:18:09.721Z,18.35
2017-04-21T02:19:08.067Z,18.30
2017-04-21T02:20:06.369Z,16.52
2017-04-21T02:21:05.439Z,18.10
2017-04-21T02:22:04.622Z,18.85
2017-04-21T02:23:02.865Z,19.18
2017-04-21T02:24:01.834Z,17.70
2017-04-21T02:25:00.110Z,17.12
2017-04-21T02:25:58.481Z,17.63
2017-04-21T02:39:56.783Z,17.93
2017-04-21T02:40:55.921Z,18.03
2017-04-21T02:41:54.218Z,19.72
2017-04-21T02:42:52.455Z,17.72
2017-04-21T02:43:51.434Z,16.85
2017-04-21T02:44:49.742Z,17.82
2017-04-21T02:45:48.138Z,17.80
2017-04-21T02:46:46.446Z,18.25
2017-04-21T02:47:44.713Z,16.50
2017-04-21T02:48:43.008Z,17.70
2017-04-21T02:49:41.268Z,17.70
2017-04-21T02:50:39.796Z,18.03
2017-04-21T02:51:38.209Z,18.10
2017-04-21T02:52:36.473Z,17.53
2017-04-21T02:53:34.772Z,18.43
2017-04-21T02:54:33.089Z,17.35
2017-04-21T02:55:31.385Z,18.78
2017-04-21T02:56:29.648Z,17.70
2017-04-21T02:57:27.903Z,17.38
2017-04-21T02:58:26.235Z,16.90
2017-04-21T02:59:24.657Z,17.28
2017-04-21T03:00:22.906Z,17.73
2017-04-21T03:01:21.172Z,18.55
2017-04-21T03:02:19.422Z,16.57
2017-04-21T03:03:17.770Z,18.52
2017-04-21T03:04:16.517Z,18.10
2017-04-21T03:05:15.560Z,18.72
2017-04-21T03:06:14.522Z,17.92
2017-04-21T03:07:12.840Z,16.50
2017-04-21T03:08:11.303Z,17.12
2017-04-21T03:09:09.620Z,18.47
2017-04-21T03:10:07.990Z,18.27
2017-04-21T03:11:06.441Z,18.07
2017-04-21T03:12:04.756Z,18.77
2017-04-21T03:13:03.111Z,19.27
2017-04-21T03:14:02.035Z,18.63
2017-04-21T03:15:00.446Z,19.87
2017-04-21T03:15:58.974Z,18.33
2017-04-21T03:16:56.891Z,19.00
2017-04-21T03:17:55.134Z,19.20
2017-04-21T03:18:53.478Z,17.87
2017-04-21T03:19:52.479Z,19.82
2017-04-21T03:20:50.738Z,18.93
2017-04-21T03:21:49.015Z,18.15
2017-04-21T03:22:47.342Z,18.38
2017-04-21T03:23:45.602Z,18.95
2017-04-21T03:24:43.982Z,17.97
2017-04-21T03:25:42.305Z,19.07
2017-04-21T03:26:40.647Z,18.58
2017-04-21T03:27:39.890Z,18.03
2017-04-21T03:28:38.119Z,18.55
2017-04-21T03:29:36.382Z,20.73
2017-04-21T03:30:34.715Z,19.43
2017-04-21T03:31:33.701Z,19.60
2017-04-21T03:32:32.860Z,20.13
2017-04-21T03:33:31.176Z,20.23
2017-04-21T03:34:29.441Z,19.80
2017-04-21T03:35:28.581Z,19.87
2017-04-21T03:36:26.856Z,18.58
2017-04-21T03:37:25.134Z,20.10
2017-04-21T03:38:23.424Z,21.27
2017-04-21T03:39:21.772Z,19.07
2017-04-21T03:40:20.006Z,19.55
2017-04-21T03:41:18.270Z,20.47
2017-04-21T03:42:16.717Z,19.80
2017-04-21T03:43:15.049Z,19.95
2017-04-21T03:44:14.115Z,20.17
2017-04-21T03:45:12.894Z,18.62
2017-04-21T03:46:11.187Z,19.63
2017-04-21T03:47:09.524Z,19.00
2017-04-21T03:48:07.772Z,19.52
2017-04-21T03:49:06.078Z,20.73
2017-04-21T03:50:05.128Z,19.90
2017-04-21T03:51:04.003Z,19.27
2017-04-21T03:52:02.281Z,19.37
2017-04-21T03:53:00.603Z,20.95
2017-04-21T03:53:58.931Z,20.68
2017-04-21T03:54:57.863Z,20.57
2017-04-21T03:55:56.192Z,18.53
2017-04-21T03:56:55.306Z,18.12
2017-04-21T03:57:54.550Z,18.10
2017-04-21T03:58:52.883Z,18.78
2017-04-21T03:59:52.681Z,19.82
2017-04-21T04:00:50.991Z,17.32
2017-04-21T04:01:49.304Z,19.08
2017-04-21T04:02:47.620Z,19.78
2017-04-21T04:03:46.044Z,18.57
2017-04-21T04:04:44.345Z,18.73
2017-04-21T04:05:43.283Z,20.27
2017-04-21T04:06:41.554Z,19.53
2017-04-21T04:07:39.831Z,19.83
2017-04-21T04:08:38.117Z,18.43
2017-04-21T04:09:36.595Z,19.02
2017-04-21T04:10:34.907Z,18.65
2017-04-21T04:11:33.920Z,19.38
2017-04-21T04:12:32.335Z,18.58
2017-04-21T04:13:31.175Z,18.97
2017-04-21T04:14:29.400Z,19.10
2017-04-21T04:15:28.424Z,20.20
2017-04-21T04:16:26.669Z,20.22
2017-04-21T04:17:24.883Z,18.90
2017-04-21T04:18:22.775Z,20.03
2017-04-21T04:19:21.090Z,20.30
2017-04-21T04:20:19.339Z,20.22
2017-04-21T04:21:17.849Z,19.48
2017-04-21T04:22:16.177Z,20.23
2017-04-21T04:23:14.559Z,21.63
2017-04-21T04:24:14.454Z,20.10
2017-04-21T04:25:13.451Z,20.58
2017-04-21T04:26:11.819Z,19.02
2017-04-21T04:27:10.060Z,21.38
2017-04-21T04:28:08.359Z,21.33
2017-04-21T04:29:06.579Z,21.25
2017-04-21T04:30:05.581Z,19.97
2017-04-21T04:31:03.924Z,20.55
2017-04-21T04:32:03.020Z,18.77
2017-04-21T04:33:06.490Z,19.63
2017-04-21T04:34:06.039Z,19.93
2017-04-21T04:35:04.340Z,20.02
2017-04-21T04:36:02.749Z,20.07
2017-04-21T04:37:01.090Z,19.77
2017-04-21T04:37:59.363Z,20.03
2017-04-21T04:38:58.427Z,20.70
2017-04-21T04:39:56.909Z,20.08
2017-04-21T04:40:55.564Z,19.97
2017-04-21T04:41:57.383Z,19.40
2017-04-21T04:42:56.886Z,20.52
2017-04-21T04:43:56.621Z,19.93
2017-04-21T04:44:55.593Z,19.65
2017-04-21T04:45:53.898Z,20.45
2017-04-21T04:46:52.998Z,19.63
2017-04-21T04:47:51.267Z,19.53
2017-04-21T04:48:50.104Z,20.83
2017-04-21T04:49:48.410Z,20.45
2017-04-21T04:50:46.783Z,19.72
2017-04-21T04:51:45.109Z,18.32
2017-04-21T04:52:43.407Z,19.60
2017-04-21T04:53:41.607Z,18.12
2017-04-21T04:54:40.051Z,19.05
2017-04-21T04:55:38.493Z,20.90
2017-04-21T04:56:36.887Z,23.40
2017-04-21T04:57:35.207Z,21.60
2017-04-21T04:58:33.438Z,21.10
2017-04-21T04:59:31.881Z,21.22
2017-04-21T05:00:30.950Z,20.62
2017-04-21T05:01:29.351Z,21.10
2017-04-21T05:02:27.630Z,20.87
2017-04-21T05:03:26.276Z,18.88
2017-04-21T05:04:24.604Z,19.52
2017-04-21T05:05:22.957Z,19.05
2017-04-21T05:06:21.228Z,21.60
2017-04-21T05:07:19.486Z,20.70
2017-04-21T05:08:19.113Z,19.77
2017-04-21T05:09:17.428Z,21.03
2017-04-21T05:10:15.470Z,20.52
2017-04-21T05:11:13.944Z,20.50
2017-04-21T05:12:12.420Z,19.05
2017-04-21T05:13:10.794Z,20.43
2017-04-21T05:14:09.291Z,21.35
2017-04-21T05:15:07.693Z,22.12
2017-04-21T05:16:05.969Z,21.35
2017-04-21T05:17:04.282Z,19.97
2017-04-21T05:18:02.696Z,20.47
2017-04-21T05:19:04.957Z,18.95
2017-04-21T05:20:03.636Z,19.37
2017-04-21T05:21:02.425Z,18.93
2017-04-21T05:22:00.779Z,20.53
2017-04-21T05:22:58.983Z,22.78
2017-04-21T05:23:57.360Z,20.22
2017-04-21T05:24:55.635Z,21.88
2017-04-21T05:25:54.854Z,20.33
2017-04-21T05:26:53.175Z,19.28
2017-04-21T05:27:52.073Z,21.72
2017-04-21T05:28:51.092Z,21.35
2017-04-21T05:29:50.321Z,22.00
2017-04-21T05:30:53.193Z,19.40
2017-04-21T05:31:52.622Z,21.12
2017-04-21T05:32:52.557Z,19.28
2017-04-21T05:33:52.921Z,20.02
2017-04-21T05:34:52.747Z,20.78
2017-04-21T05:35:51.087Z,21.97
2017-04-21T05:36:49.989Z,20.15
2017-04-21T05:37:48.260Z,19.85
2017-04-21T05:38:46.584Z,19.82
2017-04-21T05:39:46.010Z,19.62
2017-04-21T05:40:44.834Z,20.40
2017-04-21T05:41:44.043Z,20.38
2017-04-21T05:42:42.641Z,18.52
2017-04-21T05:43:41.013Z,20.30
2017-04-21T05:44:39.310Z,18.62
2017-04-21T05:45:37.554Z,20.38
2017-04-21T05:46:35.858Z,20.33
2017-04-21T05:47:34.152Z,20.35
2017-04-21T05:48:32.469Z,20.85
2017-04-21T05:49:30.376Z,21.05
2017-04-21T05:50:29.593Z,20.22
2017-04-21T05:51:28.519Z,20.35
2017-04-21T05:52:26.800Z,20.07
2017-04-21T05:53:25.980Z,20.75
2017-04-21T05:54:24.199Z,19.25
2017-04-21T05:55:22.512Z,20.92
2017-04-21T05:56:21.536Z,21.40
2017-04-21T05:57:20.615Z,21.42
2017-04-21T05:58:19.614Z,20.70
2017-04-21T05:59:18.092Z,21.28
2017-04-21T06:00:16.463Z,22.42
2017-04-21T06:01:14.810Z,20.80
2017-04-21T06:02:13.864Z,22.23
2017-04-21T06:03:12.912Z,21.95
2017-04-21T06:04:11.192Z,22.40
2017-04-21T06:05:09.529Z,21.12
2017-04-21T06:06:08.308Z,21.33
2017-04-21T06:07:10.039Z,21.17
2017-04-21T06:08:08.932Z,21.45
2017-04-21T06:09:08.017Z,22.83
2017-04-21T06:10:06.293Z,22.10
2017-04-21T06:11:04.694Z,22.15
2017-04-21T06:12:03.690Z,22.57
2017-04-21T06:13:01.940Z,21.85
2017-04-21T06:14:01.003Z,22.57
2017-04-21T06:14:59.320Z,21.50
2017-04-21T06:15:57.581Z,21.48
2017-04-21T06:16:55.950Z,23.37
2017-04-21T06:17:54.223Z,21.15
2017-04-21T06:18:52.484Z,20.80
2017-04-21T06:19:50.763Z,22.08
2017-04-21T06:20:49.801Z,21.67
2017-04-21T06:21:48.189Z,22.50
2017-04-21T06:22:46.525Z,23.00
2017-04-21T06:23:44.836Z,21.65
2017-04-21T06:24:43.283Z,22.58
2017-04-21T06:25:42.171Z,22.75
2017-04-21T06:26:40.490Z,23.33
2017-04-21T06:27:39.526Z,22.55
2017-04-21T06:28:37.855Z,22.40
2017-04-21T06:29:36.146Z,22.40
2017-04-21T06:30:34.512Z,21.87
2017-04-21T06:31:32.801Z,23.50
2017-04-21T06:32:31.221Z,23.78
2017-04-21T06:33:30.190Z,23.07
2017-04-21T06:34:28.462Z,22.52
2017-04-21T06:35:27.483Z,23.33
2017-04-21T06:36:25.732Z,22.87
2017-04-21T06:37:24.653Z,21.68
2017-04-21T06:38:22.897Z,22.20
2017-04-21T06:39:21.242Z,23.23
2017-04-21T06:40:19.524Z,22.60
2017-04-21T06:41:17.826Z,23.45
2017-04-21T06:42:16.289Z,22.38
2017-04-21T06:43:14.567Z,21.42
2017-04-21T06:44:12.887Z,21.87
2017-04-21T06:45:11.933Z,22.82
2017-04-21T06:46:09.944Z,23.90
2017-04-21T06:47:08.203Z,23.18
2017-04-21T06:48:06.470Z,23.52
2017-04-21T06:49:04.790Z,22.77
2017-04-21T06:50:03.703Z,22.53
2017-04-21T06:51:01.978Z,22.70
2017-04-21T06:52:00.613Z,23.56
2017-04-21T06:52:59.671Z,23.66
2017-04-21T06:53:57.963Z,22.29
2017-04-21T06:54:56.261Z,23.31
2017-04-21T06:55:54.685Z,23.20
2017-04-21T06:56:53.014Z,23.91
2017-04-21T06:57:51.280Z,23.91
2017-04-21T06:58:49.660Z,22.44
2017-04-21T06:59:47.933Z,24.44
2017-04-21T07:00:46.383Z,25.37
2017-04-21T07:01:44.715Z,22.66
2017-04-21T07:02:56.242Z,23.09
2017-04-21T07:03:54.590Z,23.11
2017-04-21T07:04:53.004Z,23.83
2017-04-21T07:05:51.519Z,24.57
2017-04-21T07:06:49.830Z,23.51
2017-04-21T07:07:48.109Z,25.39
2017-04-21T07:08:46.399Z,23.61
2017-04-21T07:09:44.654Z,22.97
2017-04-21T07:10:42.922Z,22.70
2017-04-21T07:11:41.211Z,23.61
2017-04-21T07:12:39.525Z,24.03
2017-04-21T07:13:37.776Z,23.94
2017-04-21T07:14:36.071Z,25.16
2017-04-21T07:15:34.803Z,23.71
2017-04-21T07:16:33.188Z,23.13
2017-04-21T07:17:32.167Z,24.26
2017-04-21T07:18:30.491Z,24.51
2017-04-21T07:19:28.722Z,22.96
2017-04-21T07:20:26.986Z,24.74
2017-04-21T07:21:25.324Z,21.46
2017-04-21T07:22:23.710Z,21.04
2017-04-21T07:23:23.110Z,22.91
2017-04-21T07:24:21.400Z,24.37
2017-04-21T07:25:19.704Z,26.03
2017-04-21T07:26:18.084Z,27.81
2017-04-21T07:27:16.387Z,25.37
2017-04-21T07:28:14.708Z,24.41
2017-04-21T07:29:13.041Z,24.21
2017-04-21T07:30:12.232Z,24.53
2017-04-21T07:31:10.599Z,23.27
2017-04-21T07:32:08.901Z,24.16
2017-04-21T07:33:07.169Z,24.53
2017-04-21T07:34:05.401Z,25.03
2017-04-21T07:35:03.703Z,24.71
2017-04-21T07:37:00.244Z,25.50
2017-04-21T07:37:59.226Z,23.80
2017-04-21T07:38:57.513Z,24.46
2017-04-21T07:39:55.798Z,26.28
2017-04-21T07:40:54.267Z,26.85
2017-04-21T07:41:52.556Z,26.13
2017-04-21T07:42:50.835Z,26.02
2017-04-21T07:43:50.556Z,25.37
2017-04-21T07:44:48.803Z,26.70
2017-04-21T07:45:47.549Z,27.73
2017-04-21T07:46:45.775Z,26.65
2017-04-21T07:47:44.748Z,25.15
2017-04-21T07:48:44.479Z,24.95
2017-04-21T07:49:42.690Z,25.42
2017-04-21T07:50:40.996Z,25.10
2017-04-21T07:51:39.394Z,26.73
2017-04-21T07:52:37.671Z,26.03
2017-04-21T07:53:35.952Z,25.83
2017-04-21T07:54:34.184Z,25.05
2017-04-21T07:55:32.536Z,26.95
2017-04-21T07:56:30.984Z,27.05
2017-04-21T07:57:30.022Z,26.75
2017-04-21T07:58:28.274Z,26.50
2017-04-21T07:59:26.674Z,28.28
2017-04-21T08:00:24.983Z,26.87
2017-04-21T08:01:24.015Z,27.23
2017-04-21T08:02:22.335Z,27.92
2017-04-21T08:03:21.336Z,28.50
2017-04-21T08:04:19.708Z,28.15
2017-04-21T08:05:19.098Z,27.77
2017-04-21T08:06:17.366Z,27.07
2017-04-21T08:07:15.654Z,27.33
2017-04-21T08:08:13.974Z,27.50
2017-04-21T08:09:12.284Z,27.42
2017-04-21T08:10:10.595Z,26.85
2017-04-21T08:11:08.895Z,26.42
2017-04-21T08:12:07.253Z,28.40
2017-04-21T08:13:05.570Z,28.33
2017-04-21T08:14:03.868Z,27.50
2017-04-21T08:15:02.238Z,27.95
2017-04-21T08:16:00.591Z,26.86
2017-04-21T08:16:58.862Z,27.53
2017-04-21T08:17:57.799Z,27.56
2017-04-21T08:18:56.142Z,27.71
2017-04-21T08:19:54.426Z,28.43
2017-04-21T08:20:52.703Z,27.03
2017-04-21T08:21:51.067Z,29.03
2017-04-21T08:22:49.346Z,28.02
2017-04-21T08:23:47.630Z,28.16
2017-04-21T08:24:46.018Z,28.79
2017-04-21T08:25:44.426Z,29.29
2017-04-21T08:26:42.737Z,28.89
2017-04-21T08:27:41.016Z,27.93
2017-04-21T08:28:39.347Z,27.84
2017-04-21T08:29:37.659Z,28.39
2017-04-21T08:30:36.528Z,29.59
2017-04-21T08:31:34.766Z,29.63
2017-04-21T08:32:33.030Z,29.80
2017-04-21T08:33:31.309Z,29.77
2017-04-21T08:34:29.700Z,26.64
2017-04-21T08:35:28.526Z,27.61
2017-04-21T08:36:26.802Z,30.26
2017-04-21T08:37:25.154Z,29.93
2017-04-21T08:38:25.590Z,29.96
2017-04-21T08:39:23.902Z,28.90
2017-04-21T08:40:22.192Z,29.80
2017-04-21T08:41:20.481Z,29.31
2017-04-21T08:42:19.354Z,30.90
2017-04-21T08:43:17.612Z,29.43
2017-04-21T08:44:16.607Z,30.10
2017-04-21T08:45:14.920Z,29.04
2017-04-21T08:46:13.210Z,29.59
2017-04-21T08:47:11.500Z,29.64
2017-04-21T08:48:09.804Z,27.86
2017-04-21T08:49:08.095Z,29.83
2017-04-21T08:50:06.459Z,29.96
2017-04-21T08:51:05.040Z,29.37
2017-04-21T08:52:03.299Z,28.00
2017-04-21T08:53:01.584Z,29.53
2017-04-21T08:53:59.891Z,30.29
2017-04-21T08:54:58.206Z,31.77
2017-04-21T08:55:56.503Z,32.17
2017-04-21T08:56:55.530Z,31.21
2017-04-21T08:57:54.479Z,33.76
2017-04-21T08:58:53.258Z,31.17
2017-04-21T08:59:52.665Z,33.37
2017-04-21T09:00:50.968Z,30.43
2017-04-21T09:01:49.342Z,30.64
2017-04-21T09:02:47.657Z,30.99
2017-04-21T09:03:46.685Z,31.36
2017-04-21T09:04:45.004Z,31.46
2017-04-21T09:05:43.320Z,30.06
2017-04-21T09:06:41.651Z,33.49
2017-04-21T09:07:39.893Z,32.27
2017-04-21T09:08:38.777Z,32.79
2017-04-21T09:09:37.824Z,30.94
2017-04-21T09:10:36.468Z,31.29
2017-04-21T09:11:35.587Z,32.27
2017-04-21T09:12:33.911Z,33.40
2017-04-21T09:13:32.404Z,32.90
2017-04-21T09:14:31.874Z,31.51
2017-04-21T09:15:30.299Z,31.67
2017-04-21T09:16:28.582Z,31.70
2017-04-21T09:17:26.849Z,32.49
2017-04-21T09:18:25.195Z,32.77
2017-04-21T09:19:23.521Z,32.90
2017-04-21T09:20:21.906Z,32.97
2017-04-21T09:21:20.704Z,33.16
2017-04-21T09:22:20.955Z,32.59
2017-04-21T09:23:21.535Z,31.81
2017-04-21T09:24:19.907Z,34.66
2017-04-21T09:25:18.720Z,32.87
2017-04-21T09:26:17.954Z,34.20
2017-04-21T09:27:16.385Z,34.43
2017-04-21T09:28:15.996Z,35.34
2017-04-21T09:29:14.364Z,33.91
2017-04-21T09:30:12.729Z,33.17
2017-04-21T09:31:10.984Z,35.44
2017-04-21T09:32:10.009Z,34.99
2017-04-21T09:33:08.283Z,33.54
2017-04-21T09:34:33.643Z,33.36
2017-04-21T09:35:04.859Z,33.09
2017-04-21T09:36:03.179Z,33.56
2017-04-21T09:37:02.013Z,32.50
2017-04-21T09:38:00.289Z,33.40
2017-04-21T09:38:58.606Z,32.01
2017-04-21T09:39:56.859Z,32.46
2017-04-21T09:40:55.765Z,34.47
2017-04-21T09:41:54.681Z,35.14
2017-04-21T09:42:53.674Z,34.86
2017-04-21T09:43:52.839Z,35.51
2017-04-21T09:44:51.111Z,32.71
2017-04-21T09:45:49.434Z,33.91
2017-04-21T09:46:47.673Z,32.73
2017-04-21T09:47:46.877Z,34.37
2017-04-21T09:48:45.148Z,33.89
2017-04-21T09:49:43.431Z,33.99
2017-04-21T09:50:53.630Z,34.94
2017-04-21T09:52:36.403Z,35.60
2017-04-21T09:53:38.100Z,37.47
2017-04-21T09:56:03.417Z,37.01
2017-04-21T09:56:04.613Z,36.99
2017-04-21T09:57:23.110Z,35.24
2017-04-21T09:59:26.094Z,35.81
2017-04-21T09:59:48.151Z,36.89
2017-04-21T10:01:22.546Z,35.80
2017-04-21T10:01:25.293Z,34.91
2017-04-21T10:01:50.396Z,35.24
2017-04-21T10:06:00.468Z,34.10
2017-04-21T10:06:03.045Z,36.43
2017-04-21T10:06:51.620Z,33.80
2017-04-21T10:07:42.292Z,36.16
2017-04-21T10:08:09.167Z,39.00
2017-04-21T10:08:09.167Z,38.03
2017-04-21T10:08:11.830Z,36.77
2017-04-21T10:08:21.616Z,38.13
2017-04-21T10:09:14.421Z,38.80
2017-04-21T10:10:13.545Z,37.77
2017-04-21T10:11:11.854Z,34.91
2017-04-21T10:12:10.257Z,35.36
2017-04-21T10:13:09.267Z,37.03
2017-04-21T10:14:08.490Z,36.80
2017-04-21T10:15:07.900Z,37.37
2017-04-21T10:16:06.239Z,36.50
2017-04-21T10:17:04.594Z,37.70
2017-04-21T10:18:02.935Z,36.30
2017-04-21T10:19:01.210Z,36.59
2017-04-21T10:19:59.473Z,36.17
2017-04-21T10:20:57.813Z,38.47
2017-04-21T10:21:56.083Z,36.20
2017-04-21T10:22:55.000Z,37.37
2017-04-21T10:23:53.294Z,38.53
2017-04-21T10:24:51.662Z,38.64
2017-04-21T10:25:49.911Z,37.49
2017-04-21T10:26:48.193Z,37.57
2017-04-21T10:27:46.461Z,37.26
2017-04-21T10:28:44.727Z,36.89
2017-04-21T10:29:43.664Z,38.20
2017-04-21T10:30:42.682Z,36.81
2017-04-21T10:31:41.595Z,36.37
2017-04-21T10:32:39.902Z,35.33
2017-04-21T10:33:38.186Z,37.09
2017-04-21T10:34:36.654Z,36.81
2017-04-21T10:35:35.008Z,37.13
2017-04-21T10:36:33.491Z,37.03
2017-04-21T10:37:31.787Z,35.53
2017-04-21T10:38:30.132Z,37.63
2017-04-21T10:39:28.418Z,36.33
2017-04-21T10:40:26.785Z,35.40
2017-04-21T10:41:25.057Z,36.51
2017-04-21T10:42:23.404Z,36.50
2017-04-21T10:43:21.714Z,38.61
2017-04-21T10:44:20.471Z,36.21
2017-04-21T10:45:19.729Z,37.16
2017-04-21T10:46:18.041Z,35.91
2017-04-21T10:47:16.467Z,36.24
2017-04-21T10:48:14.763Z,35.83
2017-04-21T10:49:13.042Z,34.09
2017-04-21T10:50:11.954Z,34.83
2017-04-21T10:51:10.224Z,31.49
2017-04-21T10:52:08.521Z,35.41
2017-04-21T10:53:06.888Z,35.41
2017-04-21T10:54:05.236Z,34.74
2017-04-21T10:55:04.211Z,34.93
2017-04-21T10:56:03.297Z,34.51
2017-04-21T10:57:02.893Z,35.50
2017-04-21T10:58:01.179Z,34.51
2017-04-21T10:58:59.427Z,32.90
2017-04-21T10:59:57.815Z,33.70
2017-04-21T11:00:56.074Z,32.11
2017-04-21T11:01:54.371Z,33.16
2017-04-21T11:02:52.632Z,34.37
2017-04-21T11:03:50.917Z,35.20
2017-04-21T11:04:49.240Z,36.17
2017-04-21T11:05:48.246Z,34.10
2017-04-21T11:06:47.252Z,34.90
2017-04-21T11:07:45.582Z,34.46
2017-04-21T11:08:44.016Z,33.14
2017-04-21T11:09:42.284Z,32.96
2017-04-21T11:10:40.815Z,34.60
2017-04-21T11:12:47.118Z,34.46
2017-04-21T11:13:45.442Z,34.13
2017-04-21T11:14:43.694Z,32.83
2017-04-21T11:15:42.556Z,32.29
2017-04-21T11:16:41.601Z,32.53
2017-04-21T11:17:41.424Z,32.99
2017-04-21T11:18:40.871Z,33.31
2017-04-21T11:19:39.227Z,32.24
2017-04-21T11:20:38.202Z,33.59
2017-04-21T11:21:36.497Z,30.54
2017-04-21T11:22:34.850Z,32.76
2017-04-21T11:23:33.128Z,31.39
2017-04-21T11:24:31.409Z,31.00
2017-04-21T11:25:30.270Z,31.90
2017-04-21T11:26:28.651Z,30.90
2017-04-21T11:27:26.914Z,30.90
2017-04-21T11:28:25.240Z,31.74
2017-04-21T11:29:23.854Z,34.19
2017-04-21T11:30:23.117Z,31.54
2017-04-21T11:31:21.961Z,29.91
2017-04-21T11:32:20.277Z,31.67
2017-04-21T11:33:18.566Z,32.61
2017-04-21T11:34:16.998Z,31.20
2017-04-21T11:35:15.348Z,31.09
2017-04-21T11:36:14.374Z,31.24
2017-04-21T11:37:12.673Z,31.81
2017-04-21T11:38:12.053Z,32.47
2017-04-21T11:39:10.335Z,29.67
2017-04-21T11:40:08.560Z,28.69
2017-04-21T11:41:06.951Z,28.44
2017-04-21T11:42:05.231Z,29.77
2017-04-21T11:43:03.618Z,31.00
2017-04-21T11:44:01.960Z,27.53
2017-04-21T11:45:00.201Z,29.92
2017-04-21T11:45:58.523Z,26.29
2017-04-21T11:46:56.918Z,25.98
2017-04-21T11:47:55.179Z,26.60
2017-04-21T11:48:55.262Z,25.17
2017-04-21T11:49:53.595Z,22.57
2017-04-21T11:50:51.998Z,22.10
2017-04-21T11:51:50.496Z,22.99
2017-04-21T11:52:49.556Z,23.67
2017-04-21T11:53:47.856Z,23.53
2017-04-21T11:54:46.285Z,23.60
2017-04-21T11:55:44.595Z,25.14
2017-04-21T11:56:42.868Z,25.07
2017-04-21T11:57:41.254Z,25.30
2017-04-21T11:58:39.552Z,24.90
2017-04-21T11:59:37.836Z,21.74
2017-04-21T12:00:36.155Z,22.49
2017-04-21T12:01:34.446Z,21.67
2017-04-21T12:02:32.753Z,21.03
2017-04-21T12:03:32.287Z,23.40
2017-04-21T12:04:30.547Z,22.44
2017-04-21T12:05:28.862Z,21.64
2017-04-21T12:06:27.141Z,23.34
2017-04-21T12:07:26.151Z,23.61
2017-04-21T12:08:24.427Z,22.86
2017-04-21T12:09:22.691Z,22.91
2017-04-21T12:10:20.959Z,25.60
2017-04-21T12:11:19.256Z,23.50
2017-04-21T12:12:17.570Z,23.54
2017-04-21T12:13:15.963Z,21.50
2017-04-21T12:14:14.242Z,21.53
2017-04-21T12:15:12.528Z,18.86
2017-04-21T12:16:11.488Z,19.84
2017-04-21T12:17:09.777Z,19.67
2017-04-21T12:18:08.145Z,18.96
2017-04-21T12:19:07.069Z,20.64
2017-04-21T12:20:05.415Z,21.31
2017-04-21T12:21:03.791Z,18.84
2017-04-21T12:22:02.104Z,21.60
2017-04-21T12:23:00.587Z,20.74
2017-04-21T12:23:58.893Z,21.44
2017-04-21T12:24:57.211Z,20.01
2017-04-21T12:25:55.590Z,20.71
2017-04-21T12:26:53.859Z,21.57
2017-04-21T12:27:52.133Z,21.50
2017-04-21T12:28:51.588Z,20.64
2017-04-21T12:29:49.981Z,20.86
2017-04-21T12:30:48.350Z,22.83
2017-04-21T12:31:46.648Z,20.90
2017-04-21T12:32:44.936Z,21.27
2017-04-21T12:33:44.699Z,21.16
2017-04-21T12:34:43.150Z,21.87
2017-04-21T12:35:41.767Z,21.63
2017-04-21T12:36:40.053Z,20.59
2017-04-21T12:37:38.359Z,21.14
2017-04-21T12:38:37.258Z,19.56
2017-04-21T12:39:35.556Z,18.76
2017-04-21T12:40:33.908Z,20.07
2017-04-21T12:41:35.582Z,18.53
2017-04-21T12:42:34.099Z,17.57
2017-04-21T12:43:32.458Z,18.80
2017-04-21T12:44:30.706Z,18.49
2017-04-21T12:45:29.819Z,19.04
2017-04-21T12:46:28.090Z,18.54
2017-04-21T12:47:27.082Z,19.20
2017-04-21T12:48:25.408Z,19.40
2017-04-21T12:49:23.810Z,20.31